Pagrindinis puslapis
METAR-TAF:

METAR-TAF

Oro uostai :

Sohagas, Egiptas

platuma: 26-20-25N, ilguma: 31-44-20E, Aukštis: 70 m

Dabartinis oras

Ataskaita buvo paskelbta 37 minutes, ne 14:00 UTC
Vėjas 18 kt iš Šiaurės Vakarų
Temperatūra 37°C
Drėgmė 16%
Slėgis 1006 hPa
Matomumas 10 km arba daugiau
nėra debesų žemiau 1500 m ir nėra kamuolinių lietaus debesų

METAR: HESG 231400Z 31018KT CAVOK 37/07 Q1006 NOSIG

Laikas: 16:37 (14:37 UTC)

Prognozė

Ataskaita buvo paskelbta 3 valandos ir 37 minutes, ne 11:00 UTC
Prognozė galioja nuo 23 metu 12 UTC su 24 metu 18 UTC
Vėjas 10 kt iš Šiaurės/Šiaurės Vakarų su gūsio iki 20 kt
Matomumas 10 km arba daugiau
nėra debesų žemiau 1500 m ir nėra kamuolinių lietaus debesų

TAF: HESG 231100Z 2312/2418 34010G20KT CAVOK

Orai ataskaitas ir orų prognozės (METAR, TAF).

turimą stotys yra geltonos ir raudonos taškus žemėlapyje.

Perkelti pele per norėdami pamatyti stoties vardą.

Tada spustelėkite, norėdami matyti oro stebėjimo ir prognozės.

Norėdami pakeisti žemėlapį: spustelėkite ant žalios mygtukų su juodo kryžiaus žemyn,; žalią mygtuką su brūkšneliu, jei norite nutolinti; arba žalių rodyklių gretimoms žemėlapius.


METAR-TAF: